Time;durP1;ratioP1;P1;durP2;ratioP2;P2;SDS_P1;SDS_P2;PMS_P1;PMS_P2;Temp;Humidity;BMP_temperature;BMP_pressure;BME280_temperature;BME280_humidity;BME280_pressure;Samples;Min_cycle;Max_cycle;Signal;HPM_P1;HPM_P2
2023/03/24 00:02:21;;;;;;;26.92;17.55;;;11.10;88.60;;;;;;5095388;28;20028;-78
2023/03/24 00:04:48;;;;;;;31.17;17.73;;;11.10;89.40;;;;;;5095646;28;20110;-78
2023/03/24 00:07:15;;;;;;;32.63;17.38;;;11.10;89.70;;;;;;5096773;28;20020;-78
2023/03/24 00:09:42;;;;;;;26.88;16.65;;;11.10;90.80;;;;;;5095963;28;20016;-78
2023/03/24 00:12:10;;;;;;;28.42;17.50;;;11.10;91.80;;;;;;5095492;28;20031;-79
2023/03/24 00:14:37;;;;;;;28.45;17.35;;;11.00;91.40;;;;;;5095555;28;20107;-77
2023/03/24 00:17:04;;;;;;;52.47;25.98;;;11.00;91.80;;;;;;5103469;28;20408;-78
2023/03/24 00:19:32;;;;;;;41.30;23.35;;;11.00;91.80;;;;;;5115924;28;20034;-77
2023/03/24 00:21:59;;;;;;;35.17;19.85;;;11.10;91.90;;;;;;5115745;28;20030;-78
2023/03/24 00:24:25;;;;;;;32.97;19.48;;;11.00;93.30;;;;;;5117167;28;20108;-78
2023/03/24 00:26:51;;;;;;;42.38;23.25;;;11.00;96.10;;;;;;5115878;28;20485;-78
2023/03/24 00:29:17;;;;;;;60.35;30.35;;;11.00;96.80;;;;;;5115658;28;20030;-77
2023/03/24 00:31:43;;;;;;;66.75;34.05;;;10.90;96.30;;;;;;5116925;28;20032;-77
2023/03/24 00:34:09;;;;;;;66.00;33.05;;;10.90;96.10;;;;;;5115508;28;20027;-78
2023/03/24 00:36:35;;;;;;;66.93;31.77;;;10.90;96.00;;;;;;5115078;28;20019;-77
2023/03/24 00:39:03;;;;;;;47.03;26.75;;;10.80;96.30;;;;;;5116765;28;20055;-77
2023/03/24 00:41:30;;;;;;;31.67;19.27;;;10.80;96.40;;;;;;5116703;28;20024;-77
2023/03/24 00:43:57;;;;;;;32.40;17.70;;;10.70;98.20;;;;;;5116765;28;20024;-77
2023/03/24 00:46:27;;;;;;;36.90;19.35;;;10.60;99.60;;;;;;5115381;28;20479;-77
2023/03/24 00:49:02;;;;;;;31.25;19.25;;;10.60;99.90;;;;;;5102365;28;20079;-78
2023/03/24 00:51:31;;;;;;;29.15;16.80;;;10.60;99.90;;;;;;5094657;28;20066;-78
2023/03/24 00:53:56;;;;;;;23.83;16.20;;;10.60;99.90;;;;;;5094708;28;20385;-78
2023/03/24 00:56:24;;;;;;;34.38;18.92;;;10.50;99.90;;;;;;5094527;28;20028;-77
2023/03/24 00:58:49;;;;;;;32.58;18.75;;;10.50;99.70;;;;;;5096058;28;20054;-78
2023/03/24 01:01:15;;;;;;;31.73;18.40;;;10.50;99.90;;;;;;5096006;28;20024;-77
2023/03/24 01:03:46;;;;;;;26.38;17.33;;;10.50;99.90;;;;;;5094649;28;20024;-78
2023/03/24 01:06:13;;;;;;;29.50;18.10;;;10.50;99.90;;;;;;5094525;28;20035;-77
2023/03/24 01:08:38;;;;;;;32.80;18.23;;;10.40;99.90;;;;;;5102799;28;20024;-77
2023/03/24 01:11:05;;;;;;;39.63;19.33;;;10.40;99.90;;;;;;5116046;28;20032;-77
2023/03/24 01:13:31;;;;;;;31.25;18.63;;;10.30;99.90;;;;;;5113628;28;20110;-77
2023/03/24 01:15:57;;;;;;;32.35;17.85;;;10.30;99.90;;;;;;5114766;28;20043;-77
2023/03/24 01:18:23;;;;;;;33.63;18.23;;;10.30;99.90;;;;;;5114777;28;20069;-77
2023/03/24 01:20:48;;;;;;;33.88;19.05;;;10.30;99.90;;;;;;5115023;28;20015;-77
2023/03/24 01:23:18;;;;;;;32.58;18.05;;;10.20;99.90;;;;;;5114616;28;20019;-77
2023/03/24 01:25:46;;;;;;;34.50;19.92;;;10.20;99.90;;;;;;5114733;28;20023;-78
2023/03/24 01:28:14;;;;;;;37.58;20.42;;;10.20;99.90;;;;;;5115750;28;20039;-77
2023/03/24 01:30:40;;;;;;;38.55;21.55;;;10.10;99.90;;;;;;5073921;28;20416;-77
2023/03/24 01:33:06;;;;;;;28.55;17.52;;;10.10;99.90;;;;;;5073832;28;20104;-77
2023/03/24 01:35:32;;;;;;;30.92;17.73;;;10.10;99.90;;;;;;5075161;28;20024;-77
2023/03/24 01:37:59;;;;;;;25.02;15.27;;;10.10;99.90;;;;;;5074692;28;20021;-78
2023/03/24 01:40:29;;;;;;;23.85;15.25;;;10.00;99.90;;;;;;5074904;28;20024;-77
2023/03/24 01:42:55;;;;;;;28.15;18.20;;;10.00;99.90;;;;;;5073760;28;20021;-77
2023/03/24 01:45:59;;;;;;;27.27;15.57;;;10.00;99.90;;;;;;5074987;28;20028;-77
2023/03/24 01:48:27;;;;;;;;;;;10.00;99.90;;;;;;5073964;28;20056;-77
2023/03/24 01:51:04;;;;;;;24.70;15.68;;;10.00;99.90;;;;;;5073377;28;19971;-77
2023/03/24 01:53:32;;;;;;;25.30;14.95;;;9.90;99.90;;;;;;5073406;28;20394;-77
2023/03/24 01:56:01;;;;;;;24.45;14.75;;;9.90;99.90;;;;;;5073279;28;20044;-77
2023/03/24 01:58:29;;;;;;;24.33;14.35;;;9.90;99.90;;;;;;5074679;28;20462;-77
2023/03/24 02:00:56;;;;;;;24.13;14.57;;;9.90;99.90;;;;;;5073347;28;20029;-77
2023/03/24 02:03:24;;;;;;;27.58;14.93;;;9.90;99.90;;;;;;5074499;28;20020;-77
2023/03/24 02:05:53;;;;;;;20.77;13.95;;;9.90;99.90;;;;;;5073370;28;20020;-77
2023/03/24 02:08:31;;;;;;;24.60;13.35;;;9.90;99.90;;;;;;5074303;28;20551;-77
2023/03/24 02:10:59;;;;;;;24.23;14.15;;;10.00;99.90;;;;;;5112698;28;20534;-77
2023/03/24 02:13:25;;;;;;;23.35;14.25;;;10.00;99.90;;;;;;5114780;28;20023;-77
2023/03/24 02:16:16;;;;;;;20.50;14.23;;;10.00;99.90;;;;;;5114840;28;20589;-77
2023/03/24 02:19:02;;;;;;;26.77;16.63;;;10.10;99.90;;;;;;5114692;28;20476;-77
2023/03/24 02:21:31;;;;;;;25.10;16.13;;;10.00;99.90;;;;;;5113463;28;20024;-78
2023/03/24 02:24:21;;;;;;;26.35;16.27;;;10.00;99.90;;;;;;5113244;28;20473;-77
2023/03/24 02:26:58;;;;;;;23.17;13.80;;;10.00;99.90;;;;;;5114700;28;20035;-77
2023/03/24 02:29:44;;;;;;;20.75;14.10;;;10.00;99.90;;;;;;5104770;28;20493;-77
2023/03/24 02:32:37;;;;;;;22.83;14.45;;;10.00;99.90;;;;;;5094266;28;20385;-78
2023/03/24 02:35:06;;;;;;;23.05;14.50;;;10.00;99.90;;;;;;5094339;28;20103;-77
2023/03/24 02:38:09;;;;;;;24.80;14.57;;;10.00;99.90;;;;;;5094150;28;20028;-77
2023/03/24 02:41:16;;;;;;;26.27;16.17;;;9.90;99.90;;;;;;5094193;28;20373;-77
2023/03/24 02:43:59;;;;;;;29.13;17.05;;;10.00;99.90;;;;;;5093687;28;20114;-77
2023/03/24 02:46:36;;;;;;;;;;;9.90;99.90;;;;;;5093236;28;20027;-77
2023/03/24 02:49:23;;;;;;;28.58;16.55;;;9.90;99.90;;;;;;5092645;28;19922;-77
2023/03/24 02:52:07;;;;;;;24.02;15.85;;;9.90;99.90;;;;;;5093760;28;20371;-78
2023/03/24 02:54:59;;;;;;;22.67;14.00;;;9.90;99.90;;;;;;5092594;28;20020;-77
2023/03/24 02:57:52;;;;;;;18.85;12.40;;;9.90;99.90;;;;;;5093992;28;20031;-77
2023/03/24 03:00:31;;;;;;;17.23;12.48;;;9.90;99.90;;;;;;5093954;28;20047;-78
2023/03/24 03:03:10;;;;;;;20.13;12.57;;;10.00;99.90;;;;;;5092835;28;20020;-77
2023/03/24 03:05:43;;;;;;;18.88;12.05;;;9.90;99.90;;;;;;5093893;28;20473;-77
2023/03/24 03:08:12;;;;;;;16.80;10.70;;;10.00;99.90;;;;;;5092577;28;20430;-77
2023/03/24 03:10:44;;;;;;;16.83;11.05;;;10.00;99.90;;;;;;5108770;28;20460;-77
2023/03/24 03:13:17;;;;;;;17.52;10.88;;;10.00;99.90;;;;;;5112614;28;20476;-77
2023/03/24 03:15:47;;;;;;;20.92;11.55;;;10.10;99.90;;;;;;5114169;28;20074;-77
2023/03/24 03:18:38;;;;;;;18.75;10.68;;;10.10;99.90;;;;;;5112624;28;20031;-78
2023/03/24 03:21:09;;;;;;;20.77;10.68;;;10.10;99.90;;;;;;5114153;28;20033;-77
2023/03/24 03:23:39;;;;;;;17.35;11.43;;;10.10;99.90;;;;;;5113954;28;20025;-77
2023/03/24 03:26:12;;;;;;;18.23;12.57;;;10.20;99.90;;;;;;5112869;28;20047;-78
2023/03/24 03:28:48;;;;;;;24.02;15.00;;;10.20;99.90;;;;;;5112622;28;20062;-77
2023/03/24 03:31:18;;;;;;;24.67;14.68;;;10.10;99.90;;;;;;5113677;28;20042;-77
2023/03/24 03:33:58;;;;;;;29.65;16.52;;;10.10;99.90;;;;;;5113784;28;20505;-78
2023/03/24 03:36:48;;;;;;;29.58;17.13;;;10.10;99.90;;;;;;5113287;28;20437;-77
2023/03/24 03:39:28;;;;;;;26.35;14.00;;;10.10;99.90;;;;;;5118019;28;20020;-78
2023/03/24 03:41:54;;;;;;;24.85;14.07;;;10.10;99.90;;;;;;5117896;28;20495;-77
2023/03/24 03:44:20;;;;;;;26.20;15.55;;;10.00;99.90;;;;;;5116650;28;20016;-77
2023/03/24 03:46:46;;;;;;;21.48;14.20;;;10.00;99.90;;;;;;5118040;28;20096;-77
2023/03/24 03:49:12;;;;;;;23.42;14.43;;;10.00;99.90;;;;;;5116755;28;20566;-77
2023/03/24 03:51:37;;;;;;;22.83;13.90;;;10.00;99.90;;;;;;5095987;28;20074;-77
2023/03/24 03:54:07;;;;;;;25.45;15.30;;;9.90;99.90;;;;;;5097160;28;20025;-77
2023/03/24 03:56:35;;;;;;;20.30;13.38;;;9.90;99.90;;;;;;5096227;28;20052;-78
2023/03/24 03:59:03;;;;;;;22.00;12.35;;;9.90;99.90;;;;;;5095839;28;20385;-77
2023/03/24 04:01:33;;;;;;;20.33;13.02;;;9.90;99.90;;;;;;5095823;28;20119;-77
2023/03/24 04:04:07;;;;;;;21.25;13.90;;;9.90;99.90;;;;;;5097078;28;20032;-77
2023/03/24 04:07:06;;;;;;;25.45;14.65;;;9.90;99.90;;;;;;5096953;28;20043;-78
2023/03/24 04:09:47;;;;;;;22.75;13.75;;;9.90;99.90;;;;;;5095623;28;20028;-77
2023/03/24 04:12:34;;;;;;;24.30;13.57;;;9.90;99.90;;;;;;5117418;28;20477;-77
2023/03/24 04:15:54;;;;;;;21.33;13.13;;;9.80;99.90;;;;;;5116130;28;20101;-77
2023/03/24 04:18:43;;;;;;;20.75;11.23;;;9.80;99.90;;;;;;5057672;28;20024;-77
2023/03/24 04:21:54;;;;;;;18.73;10.65;;;9.80;99.90;;;;;;5057546;28;20470;-77
2023/03/24 04:24:48;;;;;;;20.55;12.65;;;9.90;99.90;;;;;;5111282;28;20040;-77
2023/03/24 04:27:26;;;;;;;24.27;15.07;;;9.80;99.90;;;;;;5117144;28;20019;-78
2023/03/24 04:30:26;;;;;;;24.83;14.98;;;9.80;99.90;;;;;;5117033;28;20068;-77
2023/03/24 04:33:17;;;;;;;22.60;14.55;;;9.80;99.90;;;;;;5105113;28;20044;-77
2023/03/24 04:35:52;;;;;;;25.85;16.25;;;9.80;99.90;;;;;;5115759;28;20484;-78
2023/03/24 04:38:24;;;;;;;26.77;15.38;;;9.80;99.90;;;;;;5116966;27;20022;-77
2023/03/24 04:40:54;;;;;;;25.23;16.52;;;9.80;99.90;;;;;;5117005;28;20024;-77
2023/03/24 04:43:23;;;;;;;28.67;15.75;;;9.80;99.90;;;;;;5116728;28;20055;-77
2023/03/24 04:45:50;;;;;;;25.60;15.40;;;9.80;99.90;;;;;;5116753;28;20028;-77
2023/03/24 04:48:17;;;;;;;24.50;15.95;;;9.80;99.90;;;;;;5115070;27;20504;-77
2023/03/24 04:50:53;;;;;;;25.90;14.80;;;9.80;99.90;;;;;;5110028;28;20028;-77
2023/03/24 04:53:19;;;;;;;18.35;11.23;;;9.80;99.90;;;;;;5094779;28;20106;-77
2023/03/24 04:55:56;;;;;;;17.52;12.70;;;9.80;99.90;;;;;;5094783;28;20093;-77
2023/03/24 04:58:22;;;;;;;18.67;12.80;;;9.80;99.90;;;;;;5094862;28;20024;-78
2023/03/24 05:00:48;;;;;;;18.00;11.98;;;9.80;99.90;;;;;;5096185;28;20024;-77
2023/03/24 05:03:16;;;;;;;16.58;11.45;;;9.80;99.90;;;;;;5094620;28;20020;-77
2023/03/24 05:05:44;;;;;;;15.35;11.57;;;9.80;99.90;;;;;;5096072;28;20056;-77
2023/03/24 05:08:10;;;;;;;19.08;12.00;;;9.80;99.90;;;;;;5095973;28;20020;-77
2023/03/24 05:10:36;;;;;;;18.70;12.15;;;9.90;99.90;;;;;;5094416;28;20388;-77
2023/03/24 05:13:04;;;;;;;17.80;11.80;;;9.90;99.90;;;;;;5095597;28;20063;-77
2023/03/24 05:15:30;;;;;;;16.67;11.77;;;9.90;99.90;;;;;;5094609;28;20504;-77
2023/03/24 05:17:56;;;;;;;18.10;11.70;;;9.90;99.90;;;;;;5095535;28;20020;-77
2023/03/24 05:20:23;;;;;;;21.73;12.57;;;10.00;99.90;;;;;;5094313;28;20604;-78
2023/03/24 05:22:49;;;;;;;19.30;12.88;;;9.90;99.90;;;;;;5095496;28;20025;-77
2023/03/24 05:25:15;;;;;;;20.45;13.70;;;9.90;99.90;;;;;;5095631;28;20032;-77
2023/03/24 05:27:42;;;;;;;18.90;12.90;;;9.90;99.90;;;;;;5094062;28;20047;-77
2023/03/24 05:30:08;;;;;;;25.10;15.77;;;9.90;99.90;;;;;;5094004;28;20452;-77
2023/03/24 05:32:34;;;;;;;25.90;16.77;;;9.90;99.90;;;;;;5113236;28;20165;-78
2023/03/24 05:35:00;;;;;;;24.52;15.02;;;9.90;99.90;;;;;;5116227;28;20469;-78
2023/03/24 05:37:26;;;;;;;19.80;12.88;;;9.90;99.90;;;;;;5114303;28;20443;-78
2023/03/24 05:39:52;;;;;;;18.60;12.85;;;9.90;99.90;;;;;;5115600;28;20385;-77
2023/03/24 05:42:18;;;;;;;18.83;12.43;;;9.90;99.90;;;;;;5114176;28;20031;-78
2023/03/24 05:44:44;;;;;;;21.20;14.15;;;10.00;99.90;;;;;;5114326;28;20024;-77
2023/03/24 05:47:11;;;;;;;18.52;12.10;;;10.00;99.90;;;;;;5115246;28;20023;-77
2023/03/24 05:49:37;;;;;;;18.63;13.40;;;10.00;99.90;;;;;;5114248;28;20050;-77
2023/03/24 05:52:04;;;;;;;26.52;15.45;;;10.00;99.90;;;;;;5113923;28;20437;-78
2023/03/24 05:54:32;;;;;;;20.75;13.35;;;10.10;99.90;;;;;;5115441;28;20377;-77
2023/03/24 05:56:58;;;;;;;24.25;15.82;;;10.10;99.90;;;;;;5114102;28;20026;-77
2023/03/24 05:59:24;;;;;;;23.20;13.65;;;10.20;99.90;;;;;;5113362;28;20020;-77
2023/03/24 06:01:52;;;;;;;18.80;12.25;;;10.30;99.90;;;;;;5115132;28;20019;-77
2023/03/24 06:04:19;;;;;;;21.95;13.30;;;10.30;99.90;;;;;;5115229;28;20477;-78
2023/03/24 06:06:45;;;;;;;18.73;14.02;;;10.30;99.90;;;;;;5113902;28;20015;-77
2023/03/24 06:09:13;;;;;;;24.48;14.32;;;10.40;99.90;;;;;;5113728;28;20012;-78
2023/03/24 06:11:39;;;;;;;21.25;14.05;;;10.50;99.90;;;;;;5103856;28;20393;-78
2023/03/24 06:14:07;;;;;;;21.05;12.35;;;10.60;99.90;;;;;;5092691;28;20024;-78
2023/03/24 06:16:37;;;;;;;16.20;12.48;;;10.80;99.90;;;;;;5093299;28;20031;-77
2023/03/24 06:19:05;;;;;;;16.33;12.32;;;11.00;99.90;;;;;;5094566;28;20428;-77
2023/03/24 06:21:31;;;;;;;16.48;10.85;;;11.20;99.90;;;;;;5094161;28;20115;-78
2023/03/24 06:23:57;;;;;;;14.90;11.32;;;11.40;99.90;;;;;;5093161;28;20470;-78
2023/03/24 06:26:23;;;;;;;17.33;10.88;;;11.50;99.90;;;;;;5093170;28;20020;-77
2023/03/24 06:28:50;;;;;;;13.98;11.18;;;11.60;99.90;;;;;;5094259;28;20028;-78
2023/03/24 06:31:19;;;;;;;16.67;11.68;;;11.70;99.90;;;;;;5093169;28;20040;-78
2023/03/24 06:33:45;;;;;;;13.63;9.82;;;11.80;99.90;;;;;;5113316;28;20384;-77
2023/03/24 06:36:12;;;;;;;13.20;10.00;;;11.90;99.90;;;;;;5108207;28;20369;-78
2023/03/24 06:38:39;;;;;;;13.05;9.50;;;12.00;99.90;;;;;;5093141;28;20039;-78
2023/03/24 06:41:05;;;;;;;14.63;10.65;;;12.20;99.90;;;;;;5092484;28;20042;-77
2023/03/24 06:43:32;;;;;;;12.05;9.70;;;12.30;99.90;;;;;;5093981;28;20028;-77
2023/03/24 06:45:58;;;;;;;12.65;9.57;;;12.40;99.90;;;;;;5092877;28;20047;-78
2023/03/24 06:48:24;;;;;;;15.80;10.80;;;12.50;99.90;;;;;;5093897;28;20378;-78
2023/03/24 06:50:54;;;;;;;13.52;10.55;;;12.60;99.90;;;;;;5092673;28;20031;-77
2023/03/24 06:53:21;;;;;;;15.80;10.68;;;12.80;99.90;;;;;;5111670;28;20392;-78
2023/03/24 06:55:48;;;;;;;12.98;9.93;;;12.90;99.90;;;;;;5114240;28;20381;-78
2023/03/24 06:58:14;;;;;;;12.68;9.82;;;13.00;99.90;;;;;;5114181;28;20012;-78
2023/03/24 07:00:40;;;;;;;11.48;9.43;;;13.10;99.90;;;;;;5114274;28;20384;-78
2023/03/24 07:03:07;;;;;;;14.82;10.30;;;13.20;99.90;;;;;;5084155;28;20032;-78
2023/03/24 07:05:39;;;;;;;15.77;10.95;;;13.30;99.90;;;;;;5089474;28;20035;-78
2023/03/24 07:08:05;;;;;;;12.90;9.63;;;13.30;99.90;;;;;;5111582;28;20080;-78
2023/03/24 07:10:31;;;;;;;12.63;10.30;;;13.40;99.90;;;;;;5107929;27;20044;-78
2023/03/24 07:12:58;;;;;;;11.70;10.00;;;13.50;99.90;;;;;;5102951;28;20020;-78
2023/03/24 07:15:24;;;;;;;14.52;10.70;;;13.50;99.90;;;;;;5101133;27;20560;-78
2023/03/24 07:17:49;;;;;;;12.23;9.23;;;13.50;99.90;;;;;;5102582;28;20138;-77
2023/03/24 07:20:15;;;;;;;11.73;10.15;;;13.60;99.90;;;;;;5101446;27;20040;-78
2023/03/24 07:22:41;;;;;;;12.23;9.23;;;13.70;99.90;;;;;;5100909;28;20024;-79
2023/03/24 07:25:07;;;;;;;12.07;9.77;;;13.80;99.90;;;;;;5098523;27;20032;-78
2023/03/24 07:27:34;;;;;;;14.55;10.38;;;13.80;99.90;;;;;;5102438;28;20023;-79
2023/03/24 07:30:00;;;;;;;14.93;9.85;;;13.90;99.90;;;;;;5094658;27;20561;-78
2023/03/24 07:32:29;;;;;;;10.98;9.45;;;13.90;99.90;;;;;;5102488;28;20036;-78
2023/03/24 07:34:56;;;;;;;10.55;8.88;;;14.00;99.60;;;;;;5098649;27;20457;-79
2023/03/24 07:37:21;;;;;;;13.95;9.02;;;14.10;98.80;;;;;;5099306;28;20093;-79
2023/03/24 07:39:47;;;;;;;13.27;9.85;;;14.20;96.90;;;;;;5100662;27;20106;-79
2023/03/24 07:42:13;;;;;;;14.25;8.77;;;14.30;94.30;;;;;;5100710;28;20457;-79
2023/03/24 07:44:38;;;;;;;12.15;8.32;;;14.40;94.20;;;;;;5098975;28;20088;-79
2023/03/24 07:47:04;;;;;;;11.65;8.27;;;14.50;91.60;;;;;;5097210;27;20040;-78
2023/03/24 07:49:30;;;;;;;11.52;7.50;;;14.50;87.60;;;;;;5112052;28;20015;-78
2023/03/24 07:51:57;;;;;;;8.90;8.00;;;14.60;87.60;;;;;;5111674;27;20039;-78
2023/03/24 07:54:23;;;;;;;9.70;7.82;;;14.60;87.30;;;;;;5111207;28;20558;-78
2023/03/24 07:56:49;;;;;;;7.60;6.70;;;14.60;85.80;;;;;;5101249;28;20027;-79
2023/03/24 07:59:16;;;;;;;9.77;6.65;;;14.70;83.20;;;;;;5093250;28;20491;-79
2023/03/24 08:01:41;;;;;;;8.00;6.38;;;14.80;82.60;;;;;;5091595;28;20024;-78
2023/03/24 08:04:10;;;;;;;8.80;6.75;;;14.80;84.20;;;;;;5091769;28;20039;-78
2023/03/24 08:06:36;;;;;;;9.25;5.93;;;14.80;83.80;;;;;;5091623;28;20111;-78
2023/03/24 08:09:03;;;;;;;8.25;6.60;;;14.90;84.20;;;;;;5092801;28;20521;-78
2023/03/24 08:11:28;;;;;;;11.75;6.50;;;14.90;80.80;;;;;;5090445;28;20066;-78
2023/03/24 08:13:54;;;;;;;7.55;5.65;;;15.00;81.70;;;;;;5090834;28;20052;-78
2023/03/24 08:16:20;;;;;;;9.52;6.43;;;15.00;80.90;;;;;;5093122;28;20024;-78
2023/03/24 08:18:47;;;;;;;6.10;5.50;;;15.00;81.00;;;;;;5093074;28;20059;-78
2023/03/24 08:21:13;;;;;;;9.00;6.40;;;15.00;80.90;;;;;;5091773;28;20023;-78
2023/03/24 08:23:38;;;;;;;6.60;5.55;;;15.00;80.70;;;;;;5095531;28;20024;-78
2023/03/24 08:26:06;;;;;;;8.43;6.45;;;15.10;80.70;;;;;;5095436;28;20107;-78
2023/03/24 08:28:31;;;;;;;6.68;5.78;;;15.10;80.30;;;;;;5095425;28;20021;-78
2023/03/24 08:30:57;;;;;;;8.07;5.30;;;15.20;79.60;;;;;;5095285;28;20077;-79
2023/03/24 08:33:23;;;;;;;6.25;5.40;;;15.20;79.50;;;;;;5095188;28;20016;-78
2023/03/24 08:35:50;;;;;;;5.40;4.88;;;15.20;79.10;;;;;;5096515;28;20028;-78
2023/03/24 08:38:15;;;;;;;5.93;5.43;;;15.30;78.80;;;;;;5096461;28;20377;-78
2023/03/24 08:40:42;;;;;;;5.43;4.93;;;15.40;78.90;;;;;;5095272;28;20024;-78
2023/03/24 08:43:12;;;;;;;6.65;5.18;;;15.40;77.80;;;;;;5096319;28;20024;-78
2023/03/24 08:45:38;;;;;;;6.18;5.20;;;15.50;77.80;;;;;;5095134;28;20595;-78
2023/03/24 08:48:06;;;;;;;7.22;5.53;;;15.60;77.40;;;;;;5096183;28;20127;-79
2023/03/24 08:50:34;;;;;;;7.03;5.07;;;15.80;77.30;;;;;;5094985;28;20021;-78
2023/03/24 08:53:00;;;;;;;6.40;5.25;;;15.80;75.30;;;;;;5102313;28;20027;-78
2023/03/24 08:55:26;;;;;;;5.63;5.13;;;15.90;74.70;;;;;;5115324;28;20026;-78
2023/03/24 08:57:52;;;;;;;5.35;4.35;;;16.00;75.20;;;;;;5115239;28;20396;-78
2023/03/24 09:00:19;;;;;;;5.05;4.50;;;16.10;74.10;;;;;;5115226;28;20098;-79
2023/03/24 09:02:48;;;;;;;6.60;4.53;;;16.20;74.10;;;;;;5115102;28;20019;-78
2023/03/24 09:05:14;;;;;;;5.28;4.50;;;16.30;72.10;;;;;;5116335;28;20073;-80
2023/03/24 09:07:41;;;;;;;4.82;4.43;;;16.40;72.40;;;;;;5116202;28;20381;-79
2023/03/24 09:10:09;;;;;;;8.80;4.32;;;16.60;71.60;;;;;;5116293;28;20019;-79
2023/03/24 09:12:36;;;;;;;4.90;4.13;;;16.70;69.50;;;;;;5113996;28;20042;-79
2023/03/24 09:15:03;;;;;;;6.20;5.05;;;16.80;69.40;;;;;;5115742;27;20020;-79
2023/03/24 09:17:29;;;;;;;6.28;4.07;;;17.00;68.90;;;;;;5115637;28;20061;-79
2023/03/24 09:19:55;;;;;;;10.00;4.75;;;17.30;68.80;;;;;;5115961;28;20020;-79
2023/03/24 09:22:21;;;;;;;5.32;4.72;;;17.50;67.90;;;;;;5115384;28;20032;-79
2023/03/24 09:24:48;;;;;;;7.22;4.78;;;17.80;67.50;;;;;;5115927;28;20024;-79
2023/03/24 09:27:14;;;;;;;5.82;4.13;;;18.00;65.90;;;;;;5114562;28;20019;-79
2023/03/24 09:29:40;;;;;;;5.75;3.90;;;18.10;64.00;;;;;;5114613;28;20012;-79
2023/03/24 09:32:06;;;;;;;5.53;4.57;;;18.10;64.10;;;;;;5114570;28;20036;-79
2023/03/24 09:34:32;;;;;;;4.38;3.97;;;18.20;63.80;;;;;;5094160;28;20027;-79
2023/03/24 09:37:01;;;;;;;5.88;4.40;;;18.30;64.60;;;;;;5094084;28;20130;-79
2023/03/24 09:39:26;;;;;;;4.15;3.58;;;18.40;63.50;;;;;;5095528;28;20363;-79
2023/03/24 09:41:54;;;;;;;4.72;4.22;;;18.40;62.20;;;;;;5093958;28;20035;-79
2023/03/24 09:44:29;;;;;;;3.60;3.30;;;18.50;62.90;;;;;;5093985;28;20397;-79
2023/03/24 09:47:40;;;;;;;4.20;3.25;;;18.70;63.30;;;;;;5093687;28;20028;-79
2023/03/24 09:50:40;;;;;;;3.50;3.17;;;18.70;61.10;;;;;;5072702;28;20170;-79
2023/03/24 09:53:18;;;;;;;4.85;3.42;;;18.70;60.10;;;;;;5098506;28;20020;-79
2023/03/24 09:55:44;;;;;;;3.63;3.33;;;18.80;61.30;;;;;;5114143;28;20047;-80
2023/03/24 09:58:12;;;;;;;4.53;3.88;;;18.90;60.90;;;;;;5113991;28;20058;-79
2023/03/24 10:00:45;;;;;;;4.97;3.60;;;18.80;58.90;;;;;;5114041;28;20023;-79
2023/03/24 10:03:21;;;;;;;5.93;4.20;;;18.80;59.40;;;;;;5113930;28;20373;-79
2023/03/24 10:05:57;;;;;;;4.50;4.15;;;18.80;59.20;;;;;;5113691;28;20020;-79
2023/03/24 10:08:35;;;;;;;5.88;4.10;;;18.80;59.70;;;;;;5113751;28;20030;-79
2023/03/24 10:11:24;;;;;;;3.72;3.40;;;18.90;60.00;;;;;;5113528;28;20057;-79
2023/03/24 10:14:07;;;;;;;6.20;3.97;;;18.90;58.90;;;;;;5113591;28;20026;-79
2023/03/24 10:16:32;;;;;;;;;;;19.00;58.30;;;;;;5113921;28;20084;-80
2023/03/24 10:19:18;;;;;;;4.50;4.10;;;19.00;57.90;;;;;;5114975;28;19903;-79
2023/03/24 10:22:12;;;;;;;5.15;4.22;;;19.10;58.90;;;;;;5114956;28;20373;-79
2023/03/24 10:24:43;;;;;;;4.93;4.13;;;19.00;57.80;;;;;;5109150;28;20032;-79
2023/03/24 10:27:21;;;;;;;7.15;4.93;;;19.00;57.30;;;;;;5113367;28;20077;-79
2023/03/24 10:29:51;;;;;;;4.72;4.20;;;19.00;57.50;;;;;;5113362;28;20016;-80
2023/03/24 10:32:25;;;;;;;7.72;5.13;;;19.10;58.00;;;;;;5113331;28;20035;-79
2023/03/24 10:34:59;;;;;;;5.90;5.00;;;19.10;57.70;;;;;;5094901;28;20023;-79
2023/03/24 10:37:28;;;;;;;6.43;4.80;;;19.20;57.50;;;;;;5094237;28;20020;-79
2023/03/24 10:39:53;;;;;;;6.80;5.28;;;19.10;56.50;;;;;;5092734;28;20027;-79
2023/03/24 10:42:25;;;;;;;8.15;5.07;;;19.20;56.80;;;;;;5093186;28;20027;-79
2023/03/24 10:44:51;;;;;;;8.33;6.20;;;19.30;57.00;;;;;;5094119;28;20416;-79
2023/03/24 10:47:22;;;;;;;7.53;5.68;;;19.50;55.90;;;;;;5093758;28;20131;-79
2023/03/24 10:49:55;;;;;;;10.38;6.28;;;19.60;55.50;;;;;;5092797;28;20073;-79
2023/03/24 10:52:23;;;;;;;9.88;7.22;;;19.70;55.70;;;;;;5092540;28;20040;-79
2023/03/24 10:54:57;;;;;;;10.40;7.68;;;19.80;54.70;;;;;;5092619;28;20020;-79
2023/03/24 10:57:25;;;;;;;9.25;6.75;;;19.80;53.70;;;;;;5093655;28;20538;-79
2023/03/24 10:59:59;;;;;;;9.48;6.57;;;19.80;53.90;;;;;;5092424;28;20020;-79
2023/03/24 11:02:36;;;;;;;7.43;6.68;;;19.60;53.80;;;;;;5093918;28;20459;-79
2023/03/24 11:05:15;;;;;;;9.52;7.22;;;19.50;54.60;;;;;;5092507;28;20054;-79
2023/03/24 11:07:45;;;;;;;8.93;7.05;;;19.40;55.30;;;;;;5092918;28;20020;-79
2023/03/24 11:10:14;;;;;;;8.93;8.00;;;19.40;55.90;;;;;;5092412;28;20044;-80
2023/03/24 11:12:49;;;;;;;10.60;7.18;;;19.30;55.80;;;;;;5093568;28;20482;-80
2023/03/24 11:15:29;;;;;;;11.38;7.50;;;19.30;55.40;;;;;;5108834;28;20020;-79
2023/03/24 11:18:03;;;;;;;8.73;7.00;;;19.30;56.20;;;;;;5114131;28;20031;-79
2023/03/24 11:20:37;;;;;;;9.25;7.40;;;19.30;55.20;;;;;;5112713;28;20016;-79
2023/03/24 11:23:10;;;;;;;9.82;7.38;;;19.20;55.40;;;;;;5113863;28;20520;-79
2023/03/24 11:25:38;;;;;;;9.82;6.97;;;19.40;56.40;;;;;;5112562;28;20035;-79
2023/03/24 11:28:20;;;;;;;11.15;7.07;;;19.40;55.50;;;;;;5112420;28;20089;-79
2023/03/24 11:30:54;;;;;;;15.00;6.80;;;19.40;55.50;;;;;;5113709;28;20020;-80
2023/03/24 11:33:33;;;;;;;8.48;6.32;;;19.50;54.60;;;;;;5114017;28;20750;-79
2023/03/24 11:36:20;;;;;;;8.63;6.68;;;19.50;54.30;;;;;;5112482;28;20023;-79
2023/03/24 11:39:09;;;;;;;9.73;5.97;;;19.60;54.20;;;;;;5113519;28;20473;-79
2023/03/24 11:41:38;;;;;;;7.05;5.90;;;19.60;53.80;;;;;;5112426;28;20456;-79
2023/03/24 11:44:24;;;;;;;7.93;6.10;;;19.60;54.00;;;;;;5113705;28;20027;-79
2023/03/24 11:46:57;;;;;;;6.88;5.15;;;19.70;54.50;;;;;;5112272;28;20016;-79
2023/03/24 11:49:27;;;;;;;6.70;5.10;;;19.70;54.90;;;;;;5112401;28;20088;-80
2023/03/24 11:51:54;;;;;;;7.88;6.07;;;19.70;54.80;;;;;;5113637;28;20088;-79
2023/03/24 11:54:28;;;;;;;5.57;5.05;;;19.70;54.20;;;;;;5107885;28;20427;-79
2023/03/24 11:57:03;;;;;;;6.65;5.13;;;19.80;54.10;;;;;;5091862;28;20020;-80
2023/03/24 11:59:50;;;;;;;6.00;5.15;;;19.90;54.50;;;;;;5096161;28;20464;-79
2023/03/24 12:03:14;;;;;;;8.57;5.53;;;20.00;53.20;;;;;;5095896;28;20016;-79
2023/03/24 12:06:12;;;;;;;6.80;4.75;;;20.00;52.40;;;;;;5074733;28;20024;-79
2023/03/24 12:09:03;;;;;;;5.63;4.70;;;20.10;52.00;;;;;;5074625;28;20131;-79
2023/03/24 12:11:37;;;;;;;8.15;4.95;;;20.20;51.10;;;;;;5094085;28;20432;-79
2023/03/24 12:14:04;;;;;;;5.72;4.80;;;20.20;51.10;;;;;;5095518;28;20080;-79
2023/03/24 12:17:06;;;;;;;5.95;4.68;;;20.10;50.50;;;;;;5095701;28;20016;-79
2023/03/24 12:20:10;;;;;;;7.38;5.40;;;20.10;50.40;;;;;;5096973;28;20505;-79
2023/03/24 12:22:51;;;;;;;6.40;4.90;;;20.10;50.40;;;;;;5096073;28;20415;-79
2023/03/24 12:25:40;;;;;;;5.70;4.70;;;20.10;51.00;;;;;;5095564;28;20028;-79
2023/03/24 12:28:32;;;;;;;5.05;4.18;;;20.10;49.80;;;;;;5095365;28;20485;-79
2023/03/24 12:31:10;;;;;;;5.30;4.38;;;20.00;50.60;;;;;;5095402;28;20119;-79
2023/03/24 12:34:06;;;;;;;4.75;4.22;;;20.00;51.40;;;;;;5096564;28;20128;-79
2023/03/24 12:36:50;;;;;;;7.28;4.45;;;20.00;51.40;;;;;;5074977;28;20031;-79
2023/03/24 12:39:42;;;;;;;5.53;4.97;;;20.00;51.40;;;;;;5076229;28;20070;-79
2023/03/24 12:42:19;;;;;;;8.77;5.10;;;19.90;51.00;;;;;;5087817;28;20031;-79
2023/03/24 12:45:10;;;;;;;5.82;4.68;;;20.00;50.10;;;;;;5096387;28;20035;-79
2023/03/24 12:47:44;;;;;;;6.38;4.20;;;20.00;50.30;;;;;;5096423;28;20412;-79
2023/03/24 12:50:18;;;;;;;6.18;4.22;;;20.00;50.30;;;;;;5095056;28;20191;-79
2023/03/24 12:52:56;;;;;;;5.55;4.82;;;20.00;49.40;;;;;;5094871;28;20035;-79
2023/03/24 12:55:34;;;;;;;6.57;4.93;;;20.00;49.60;;;;;;5100121;28;20107;-79
2023/03/24 12:58:10;;;;;;;7.75;5.18;;;20.00;49.70;;;;;;5115119;28;20493;-79
2023/03/24 13:00:42;;;;;;;9.75;5.22;;;20.00;50.00;;;;;;5116526;28;20026;-79
2023/03/24 13:03:25;;;;;;;7.68;4.60;;;20.00;50.40;;;;;;5115072;28;20027;-79
2023/03/24 13:05:54;;;;;;;4.95;4.32;;;20.00;49.50;;;;;;5115318;28;20023;-79